createdAt,value
2019-01-13T00:00:55.308Z,1004.50
2019-01-13T00:01:55.324Z,1004.53
2019-01-13T00:02:55.340Z,1004.57
2019-01-13T00:03:55.359Z,1004.62
2019-01-13T00:04:55.372Z,1004.63
2019-01-13T00:05:55.387Z,1004.65
2019-01-13T00:06:55.402Z,1004.61
2019-01-13T00:07:55.421Z,1004.61
2019-01-13T00:08:55.435Z,1004.60
2019-01-13T00:09:55.449Z,1004.65
2019-01-13T00:10:55.465Z,1004.61
2019-01-13T00:11:55.483Z,1004.56
2019-01-13T00:12:55.497Z,1004.58
2019-01-13T00:13:55.515Z,1004.61
2019-01-13T00:14:55.528Z,1004.59
2019-01-13T00:15:55.547Z,1004.64
2019-01-13T00:16:55.558Z,1004.61
2019-01-13T00:17:55.576Z,1004.58
2019-01-13T00:18:55.593Z,1004.64
2019-01-13T00:19:55.610Z,1004.61
2019-01-13T00:20:55.624Z,1004.65
2019-01-13T00:21:55.638Z,1004.65
2019-01-13T00:22:55.655Z,1004.66
2019-01-13T00:23:55.673Z,1004.68
2019-01-13T00:24:55.687Z,1004.68
2019-01-13T00:25:55.701Z,1004.68
2019-01-13T00:26:55.721Z,1004.63
2019-01-13T00:27:55.736Z,1004.72
2019-01-13T00:28:55.749Z,1004.71
2019-01-13T00:29:55.767Z,1004.70
2019-01-13T00:30:55.781Z,1004.74
2019-01-13T00:31:55.802Z,1004.72
2019-01-13T00:32:55.811Z,1004.69
2019-01-13T00:33:55.831Z,1004.72
2019-01-13T00:34:55.849Z,1004.71
2019-01-13T00:35:55.860Z,1004.71
2019-01-13T00:36:55.875Z,1004.74
2019-01-13T00:37:55.899Z,1004.76
2019-01-13T00:38:55.909Z,1004.73
2019-01-13T00:39:55.926Z,1004.72
2019-01-13T00:40:55.941Z,1004.70
2019-01-13T00:41:55.955Z,1004.69
2019-01-13T00:42:55.973Z,1004.64
2019-01-13T00:43:55.990Z,1004.70
2019-01-13T00:44:56.002Z,1004.67
2019-01-13T00:45:56.018Z,1004.62
2019-01-13T00:46:56.034Z,1004.60
2019-01-13T00:47:56.053Z,1004.62
2019-01-13T00:48:56.066Z,1004.58
2019-01-13T00:49:56.084Z,1004.59
2019-01-13T00:50:56.101Z,1004.53
2019-01-13T00:51:56.117Z,1004.52
2019-01-13T00:52:56.131Z,1004.54
2019-01-13T00:53:56.146Z,1004.52
2019-01-13T00:54:56.164Z,1004.52
2019-01-13T00:55:56.180Z,1004.50
2019-01-13T00:56:56.195Z,1004.52
2019-01-13T00:57:56.212Z,1004.48
2019-01-13T00:58:56.228Z,1004.49
2019-01-13T00:59:56.242Z,1004.44
2019-01-13T01:00:56.258Z,1004.48
2019-01-13T01:01:56.278Z,1004.38
2019-01-13T01:02:56.291Z,1004.44
2019-01-13T01:03:56.307Z,1004.37
2019-01-13T01:04:56.323Z,1004.40
2019-01-13T01:05:56.341Z,1004.42
2019-01-13T01:06:56.354Z,1004.40
2019-01-13T01:07:56.370Z,1004.42
2019-01-13T01:08:56.387Z,1004.44
2019-01-13T01:09:56.403Z,1004.44
2019-01-13T01:10:56.418Z,1004.46
2019-01-13T01:11:56.434Z,1004.42
2019-01-13T01:12:57.056Z,1004.40
2019-01-13T01:13:56.467Z,1004.40
2019-01-13T01:14:56.483Z,1004.35
2019-01-13T01:15:56.500Z,1004.36
2019-01-13T01:16:56.516Z,1004.38
2019-01-13T01:17:56.532Z,1004.34
2019-01-13T01:18:56.545Z,1004.31
2019-01-13T01:19:56.568Z,1004.29
2019-01-13T01:20:56.580Z,1004.24
2019-01-13T01:21:56.598Z,1004.22
2019-01-13T01:22:56.610Z,1004.24
2019-01-13T01:23:56.628Z,1004.20
2019-01-13T01:24:56.641Z,1004.22
2019-01-13T01:25:56.658Z,1004.24
2019-01-13T01:26:56.676Z,1004.20
2019-01-13T01:27:56.693Z,1004.17
2019-01-13T01:28:56.709Z,1004.14
2019-01-13T01:29:56.724Z,1004.16
2019-01-13T01:30:56.740Z,1004.15
2019-01-13T01:31:56.757Z,1004.24
2019-01-13T01:32:56.772Z,1004.21
2019-01-13T01:33:56.786Z,1004.21
2019-01-13T01:34:56.953Z,1004.21
2019-01-13T01:35:56.827Z,1004.22
2019-01-13T01:36:56.835Z,1004.23
2019-01-13T01:37:56.853Z,1004.25
2019-01-13T01:38:56.869Z,1004.20
2019-01-13T01:39:56.883Z,1004.17
2019-01-13T01:40:56.898Z,1004.22
2019-01-13T01:41:56.917Z,1004.19
2019-01-13T01:42:56.934Z,1004.19
2019-01-13T01:43:56.950Z,1004.20
2019-01-13T01:44:56.962Z,1004.14
2019-01-13T01:45:56.981Z,1004.15
2019-01-13T01:46:56.997Z,1004.16
2019-01-13T01:47:57.013Z,1004.16
2019-01-13T01:48:57.031Z,1004.19
2019-01-13T01:49:57.045Z,1004.18
2019-01-13T01:50:57.062Z,1004.16
2019-01-13T01:51:57.075Z,1004.13
2019-01-13T01:52:57.092Z,1004.14
2019-01-13T01:53:57.109Z,1004.17
2019-01-13T01:54:57.123Z,1004.09
2019-01-13T01:55:57.140Z,1004.08
2019-01-13T01:56:57.154Z,1004.04
2019-01-13T01:57:57.171Z,1004.02
2019-01-13T01:58:57.195Z,1003.98
2019-01-13T01:59:57.203Z,1003.96
2019-01-13T02:00:57.219Z,1003.93
2019-01-13T02:01:57.239Z,1003.91
2019-01-13T02:02:57.321Z,1003.93
2019-01-13T02:03:57.271Z,1003.95
2019-01-13T02:04:57.283Z,1003.92
2019-01-13T02:05:57.302Z,1003.91
2019-01-13T02:06:57.317Z,1003.87
2019-01-13T02:07:57.372Z,1003.86
2019-01-13T02:08:57.348Z,1003.79
2019-01-13T02:09:57.364Z,1003.76
2019-01-13T02:10:57.382Z,1003.73
2019-01-13T02:11:57.404Z,1003.73
2019-01-13T02:12:57.412Z,1003.80
2019-01-13T02:13:57.428Z,1003.83
2019-01-13T02:14:57.446Z,1003.82
2019-01-13T02:15:57.463Z,1003.78
2019-01-13T02:16:57.477Z,1003.83
2019-01-13T02:17:57.495Z,1003.79
2019-01-13T02:18:57.511Z,1003.73
2019-01-13T02:19:57.527Z,1003.70
2019-01-13T02:20:57.543Z,1003.67
2019-01-13T02:21:57.561Z,1003.65
2019-01-13T02:22:57.576Z,1003.63
2019-01-13T02:23:57.593Z,1003.65
2019-01-13T02:24:57.605Z,1003.61
2019-01-13T02:25:57.625Z,1003.56
2019-01-13T02:26:57.642Z,1003.52
2019-01-13T02:27:57.657Z,1003.53
2019-01-13T02:28:57.673Z,1003.57
2019-01-13T02:29:57.690Z,1003.55
2019-01-13T02:30:57.713Z,1003.58
2019-01-13T02:31:57.721Z,1003.61
2019-01-13T02:32:57.735Z,1003.61
2019-01-13T02:33:57.755Z,1003.61
2019-01-13T02:34:57.772Z,1003.57
2019-01-13T02:35:57.785Z,1003.58
2019-01-13T02:36:57.802Z,1003.54
2019-01-13T02:37:57.883Z,1003.56
2019-01-13T02:38:57.834Z,1003.61
2019-01-13T02:39:57.854Z,1003.68
2019-01-13T02:40:57.865Z,1003.66
2019-01-13T02:41:57.946Z,1003.66
2019-01-13T02:42:57.905Z,1003.63
2019-01-13T02:43:57.919Z,1003.57
2019-01-13T02:44:57.938Z,1003.62
2019-01-13T02:45:57.947Z,1003.63
2019-01-13T02:46:57.962Z,1003.60
2019-01-13T02:47:57.981Z,1003.67
2019-01-13T02:48:58.044Z,1003.69
2019-01-13T02:49:58.012Z,1003.72
2019-01-13T02:50:58.033Z,1003.70
2019-01-13T02:51:58.047Z,1003.74
2019-01-13T02:52:58.062Z,1003.77
2019-01-13T02:53:58.080Z,1003.78
2019-01-13T02:54:58.091Z,1003.78
2019-01-13T02:55:58.110Z,1003.77
2019-01-13T02:56:58.126Z,1003.75
2019-01-13T02:57:58.148Z,1003.72
2019-01-13T02:58:58.158Z,1003.74
2019-01-13T02:59:58.176Z,1003.76
2019-01-13T03:00:58.191Z,1003.77
2019-01-13T03:01:58.204Z,1003.73
2019-01-13T03:02:58.220Z,1003.70
2019-01-13T03:03:58.236Z,1003.72
2019-01-13T03:04:58.252Z,1003.70
2019-01-13T03:05:58.276Z,1003.67
2019-01-13T03:06:58.285Z,1003.66
2019-01-13T03:07:58.302Z,1003.64
2019-01-13T03:08:58.318Z,1003.64
2019-01-13T03:09:58.340Z,1003.59
2019-01-13T03:10:58.351Z,1003.58
2019-01-13T03:11:58.379Z,1003.52
2019-01-13T03:12:58.383Z,1003.52
2019-01-13T03:13:58.403Z,1003.51
2019-01-13T03:14:58.416Z,1003.48
2019-01-13T03:15:58.433Z,1003.51
2019-01-13T03:16:58.450Z,1003.43
2019-01-13T03:17:58.462Z,1003.38
2019-01-13T03:18:58.483Z,1003.40
2019-01-13T03:19:58.494Z,1003.44
2019-01-13T03:20:58.510Z,1003.42
2019-01-13T03:21:58.528Z,1003.39
2019-01-13T03:22:58.550Z,1003.34
2019-01-13T03:23:58.560Z,1003.28
2019-01-13T03:24:58.578Z,1003.28
2019-01-13T03:25:58.592Z,1003.27
2019-01-13T03:26:58.610Z,1003.26
2019-01-13T03:27:58.624Z,1003.21
2019-01-13T03:28:58.646Z,1003.18
2019-01-13T03:29:58.656Z,1003.16
2019-01-13T03:31:10.731Z,1003.15
2019-01-13T03:31:58.692Z,1003.13
2019-01-13T03:32:58.708Z,1003.13
2019-01-13T03:33:58.726Z,1003.07
2019-01-13T03:34:58.740Z,1003.07
2019-01-13T03:35:58.758Z,1003.10
2019-01-13T03:36:58.769Z,1003.06
2019-01-13T03:37:58.788Z,1003.05
2019-01-13T03:38:58.803Z,1003.08
2019-01-13T03:39:58.818Z,1003.06
2019-01-13T03:40:58.837Z,1003.05
2019-01-13T03:41:58.851Z,1003.00
2019-01-13T03:42:58.867Z,1003.00
2019-01-13T03:43:58.883Z,1002.99
2019-01-13T03:44:58.902Z,1002.99
2019-01-13T03:45:58.916Z,1003.00
2019-01-13T03:46:58.934Z,1002.99
2019-01-13T03:47:58.957Z,1003.00
2019-01-13T03:48:58.969Z,1002.95
2019-01-13T03:49:58.984Z,1002.96
2019-01-13T03:50:58.998Z,1002.85
2019-01-13T03:51:59.017Z,1002.80
2019-01-13T03:52:59.032Z,1002.74
2019-01-13T03:53:59.045Z,1002.71
2019-01-13T03:54:59.064Z,1002.67
2019-01-13T03:55:59.084Z,1002.67
2019-01-13T03:56:59.150Z,1002.67
2019-01-13T03:57:59.113Z,1002.69
2019-01-13T03:58:59.130Z,1002.63
2019-01-13T03:59:59.146Z,1002.61
2019-01-13T04:00:59.160Z,1002.67
2019-01-13T04:01:59.189Z,1002.62
2019-01-13T04:02:59.195Z,1002.63
2019-01-13T04:03:59.212Z,1002.60
2019-01-13T04:04:59.227Z,1002.56
2019-01-13T04:05:59.241Z,1002.50
2019-01-13T04:06:59.260Z,1002.56
2019-01-13T04:07:59.277Z,1002.54
2019-01-13T04:08:59.290Z,1002.58
2019-01-13T04:09:59.308Z,1002.63
2019-01-13T04:10:59.322Z,1002.55
2019-01-13T04:11:59.340Z,1002.55
2019-01-13T04:12:59.357Z,1002.49
2019-01-13T04:13:59.374Z,1002.48
2019-01-13T04:14:59.391Z,1002.44
2019-01-13T04:15:59.404Z,1002.37
2019-01-13T04:16:59.421Z,1002.36
2019-01-13T04:17:59.441Z,1002.31
2019-01-13T04:18:59.456Z,1002.31
2019-01-13T04:19:59.472Z,1002.27
2019-01-13T04:20:59.489Z,1002.29
2019-01-13T04:21:59.504Z,1002.24
2019-01-13T04:22:59.518Z,1002.21
2019-01-13T04:23:59.536Z,1002.18
2019-01-13T04:24:59.552Z,1002.20
2019-01-13T04:25:59.567Z,1002.18
2019-01-13T04:26:59.583Z,1002.12
2019-01-13T04:27:59.600Z,1002.14
2019-01-13T04:28:59.618Z,1002.14
2019-01-13T04:29:59.631Z,1002.11
2019-01-13T04:30:59.649Z,1002.08
2019-01-13T04:31:59.665Z,1002.06
2019-01-13T04:32:59.683Z,1002.01
2019-01-13T04:33:59.700Z,1001.96
2019-01-13T04:34:59.713Z,1002.00
2019-01-13T04:35:59.730Z,1001.94
2019-01-13T04:36:59.746Z,1001.92
2019-01-13T04:37:59.762Z,1001.91
2019-01-13T04:38:59.780Z,1001.91
2019-01-13T04:39:59.798Z,1001.86
2019-01-13T04:40:59.811Z,1001.86
2019-01-13T04:41:59.828Z,1001.81
2019-01-13T04:42:59.844Z,1001.80
2019-01-13T04:43:59.865Z,1001.79
2019-01-13T04:44:59.879Z,1001.84
2019-01-13T04:45:59.894Z,1001.80
2019-01-13T04:46:59.909Z,1001.80
2019-01-13T04:47:59.928Z,1001.78
2019-01-13T04:48:59.943Z,1001.80
2019-01-13T04:49:59.960Z,1001.71
2019-01-13T04:50:59.981Z,1001.72
2019-01-13T04:51:59.998Z,1001.65
2019-01-13T04:53:00.010Z,1001.58
2019-01-13T04:54:00.023Z,1001.57
2019-01-13T04:55:00.039Z,1001.57
2019-01-13T04:56:00.059Z,1001.58
2019-01-13T04:57:00.071Z,1001.58
2019-01-13T04:58:00.088Z,1001.62
2019-01-13T04:59:00.106Z,1001.54
2019-01-13T05:00:00.329Z,1001.53
2019-01-13T05:01:00.140Z,1001.56
2019-01-13T05:02:00.156Z,1001.46
2019-01-13T05:03:00.173Z,1001.51
2019-01-13T05:04:00.188Z,1001.47
2019-01-13T05:05:00.236Z,1001.51
2019-01-13T05:06:00.218Z,1001.47
2019-01-13T05:07:00.240Z,1001.45
2019-01-13T05:08:00.253Z,1001.48
2019-01-13T05:09:00.270Z,1001.42
2019-01-13T05:10:00.285Z,1001.39
2019-01-13T05:11:00.303Z,1001.37
2019-01-13T05:12:00.317Z,1001.36
2019-01-13T05:13:00.335Z,1001.35
2019-01-13T05:14:00.349Z,1001.31
2019-01-13T05:15:00.374Z,1001.29
2019-01-13T05:16:00.385Z,1001.28
2019-01-13T05:17:00.398Z,1001.26
2019-01-13T05:18:00.418Z,1001.25
2019-01-13T05:19:00.437Z,1001.25
2019-01-13T05:20:00.453Z,1001.21
2019-01-13T05:21:00.467Z,1001.23
2019-01-13T05:22:00.486Z,1001.18
2019-01-13T05:23:00.500Z,1001.21
2019-01-13T05:24:00.513Z,1001.21
2019-01-13T05:25:00.550Z,1001.21
2019-01-13T05:26:00.545Z,1001.20
2019-01-13T05:27:00.564Z,1001.25
2019-01-13T05:28:00.581Z,1001.22
2019-01-13T05:29:00.596Z,1001.16
2019-01-13T05:30:00.611Z,1001.18
2019-01-13T05:31:00.630Z,1001.14
2019-01-13T05:32:00.645Z,1001.17
2019-01-13T05:33:00.659Z,1001.12
2019-01-13T05:34:00.678Z,1001.13
2019-01-13T05:35:00.694Z,1001.11
2019-01-13T05:36:00.713Z,1001.05
2019-01-13T05:37:00.725Z,1001.09
2019-01-13T05:38:00.744Z,1001.11
2019-01-13T05:39:00.760Z,1001.10
2019-01-13T05:40:00.782Z,1001.10
2019-01-13T05:41:00.793Z,1001.07
2019-01-13T05:42:00.806Z,1001.10
2019-01-13T05:43:00.826Z,1001.05
2019-01-13T05:44:00.844Z,1001.09
2019-01-13T05:45:00.856Z,1001.11
2019-01-13T05:46:00.873Z,1001.13
2019-01-13T05:47:00.889Z,1001.14
2019-01-13T05:48:00.909Z,1001.09
2019-01-13T05:49:00.924Z,1001.07
2019-01-13T05:50:00.938Z,1000.99
2019-01-13T05:51:00.959Z,1000.97
2019-01-13T05:52:00.972Z,1000.98
2019-01-13T05:53:00.987Z,1000.96
2019-01-13T05:54:01.003Z,1000.93
2019-01-13T05:55:01.020Z,1000.89
2019-01-13T05:56:01.039Z,1000.91
2019-01-13T05:57:01.054Z,1000.99
2019-01-13T05:58:01.069Z,1000.98
2019-01-13T05:59:01.090Z,1000.95
2019-01-13T06:00:01.102Z,1000.92
2019-01-13T06:01:01.152Z,1000.92
2019-01-13T06:02:01.138Z,1000.86
2019-01-13T06:03:01.154Z,1000.83
2019-01-13T06:04:01.172Z,1000.78
2019-01-13T06:05:01.186Z,1000.75
2019-01-13T06:06:01.202Z,1000.70
2019-01-13T06:07:01.218Z,1000.73
2019-01-13T06:08:01.235Z,1000.72
2019-01-13T06:09:01.251Z,1000.67
2019-01-13T06:10:01.267Z,1000.63
2019-01-13T06:11:01.283Z,1000.65
2019-01-13T06:12:01.299Z,1000.55
2019-01-13T06:13:01.316Z,1000.53
2019-01-13T06:14:01.333Z,1000.51
2019-01-13T06:15:01.349Z,1000.50
2019-01-13T06:16:01.365Z,1000.46
2019-01-13T06:17:01.380Z,1000.49
2019-01-13T06:18:01.400Z,1000.42
2019-01-13T06:19:01.416Z,1000.39
2019-01-13T06:20:01.430Z,1000.34
2019-01-13T06:21:01.449Z,1000.35
2019-01-13T06:22:01.464Z,1000.33
2019-01-13T06:23:01.479Z,1000.33
2019-01-13T06:24:01.495Z,1000.27
2019-01-13T06:25:01.512Z,1000.24
2019-01-13T06:26:01.528Z,1000.24
2019-01-13T06:27:01.547Z,1000.24
2019-01-13T06:28:01.564Z,1000.18
2019-01-13T06:29:01.578Z,1000.17
2019-01-13T06:30:01.596Z,1000.17
2019-01-13T06:31:01.609Z,1000.16
2019-01-13T06:32:01.628Z,1000.12
2019-01-13T06:33:01.645Z,1000.14
2019-01-13T06:34:01.662Z,1000.12
2019-01-13T06:35:01.679Z,1000.10
2019-01-13T06:36:01.691Z,1000.11
2019-01-13T06:37:01.711Z,1000.08
2019-01-13T06:38:01.724Z,1000.05
2019-01-13T06:39:01.740Z,1000.06
2019-01-13T06:40:01.757Z,1000.04
2019-01-13T06:41:01.773Z,1000.05
2019-01-13T06:42:01.789Z,1000.00
2019-01-13T06:43:01.806Z,999.97
2019-01-13T06:44:01.824Z,999.95
2019-01-13T06:45:01.838Z,999.92
2019-01-13T06:46:01.855Z,999.90
2019-01-13T06:47:01.876Z,999.86
2019-01-13T06:48:01.888Z,999.87
2019-01-13T06:49:01.904Z,999.89
2019-01-13T06:50:01.922Z,999.83
2019-01-13T06:51:01.939Z,999.86
2019-01-13T06:52:01.956Z,999.77
2019-01-13T06:53:01.971Z,999.77
2019-01-13T06:54:01.987Z,999.79
2019-01-13T06:55:02.005Z,999.79
2019-01-13T06:56:02.020Z,999.78
2019-01-13T06:57:02.034Z,999.77
2019-01-13T06:58:02.053Z,999.74
2019-01-13T06:59:02.071Z,999.78
2019-01-13T07:00:02.087Z,999.76
2019-01-13T07:01:02.102Z,999.77
2019-01-13T07:02:03.484Z,999.75
2019-01-13T07:03:02.133Z,999.73
2019-01-13T07:04:02.152Z,999.79
2019-01-13T07:05:02.168Z,999.72
2019-01-13T07:06:02.189Z,999.70
2019-01-13T07:07:02.199Z,999.69
2019-01-13T07:08:02.222Z,999.70
2019-01-13T07:09:02.230Z,999.66
2019-01-13T07:10:02.247Z,999.64
2019-01-13T07:11:02.263Z,999.60
2019-01-13T07:12:02.284Z,999.53
2019-01-13T07:13:02.295Z,999.56
2019-01-13T07:14:02.316Z,999.59
2019-01-13T07:15:02.331Z,999.65
2019-01-13T07:16:02.346Z,999.60
2019-01-13T07:17:02.364Z,999.61
2019-01-13T07:18:02.381Z,999.59
2019-01-13T07:19:02.396Z,999.54
2019-01-13T07:20:02.413Z,999.51
2019-01-13T07:21:02.428Z,999.52
2019-01-13T07:22:02.443Z,999.51
2019-01-13T07:23:02.459Z,999.52
2019-01-13T07:24:02.478Z,999.44
2019-01-13T07:25:02.491Z,999.45
2019-01-13T07:26:02.511Z,999.43
2019-01-13T07:27:02.528Z,999.43
2019-01-13T07:28:02.543Z,999.40
2019-01-13T07:29:02.557Z,999.34
2019-01-13T07:30:02.575Z,999.33
2019-01-13T07:31:02.590Z,999.32
2019-01-13T07:32:02.606Z,999.25
2019-01-13T07:33:02.626Z,999.21
2019-01-13T07:34:02.640Z,999.26
2019-01-13T07:35:02.666Z,999.24
2019-01-13T07:36:02.673Z,999.21
2019-01-13T07:37:02.687Z,999.22
2019-01-13T07:38:02.706Z,999.22
2019-01-13T07:39:02.723Z,999.25
2019-01-13T07:40:02.739Z,999.16
2019-01-13T07:41:02.755Z,999.22
2019-01-13T07:42:02.774Z,999.15
2019-01-13T07:43:02.788Z,999.11
2019-01-13T07:44:02.803Z,999.15
2019-01-13T07:45:02.825Z,999.08
2019-01-13T07:46:02.838Z,999.10
2019-01-13T07:47:02.858Z,999.09
2019-01-13T07:48:02.868Z,999.04
2019-01-13T07:49:02.884Z,999.01
2019-01-13T07:50:02.908Z,998.99
2019-01-13T07:51:02.919Z,999.00
2019-01-13T07:52:02.936Z,999.02
2019-01-13T07:53:02.952Z,999.01
2019-01-13T07:54:02.968Z,998.98
2019-01-13T07:55:02.986Z,998.97
2019-01-13T07:56:03.002Z,998.99
2019-01-13T07:57:03.016Z,998.94
2019-01-13T07:58:03.032Z,998.91
2019-01-13T07:59:03.052Z,998.85
2019-01-13T08:00:03.069Z,998.85
2019-01-13T08:01:03.082Z,998.82
2019-01-13T08:02:03.101Z,998.76
2019-01-13T08:03:03.114Z,998.80
2019-01-13T08:04:03.135Z,998.79
2019-01-13T08:05:03.150Z,998.80
2019-01-13T08:06:03.167Z,998.77
2019-01-13T08:07:03.183Z,998.74
2019-01-13T08:08:03.199Z,998.76
2019-01-13T08:09:03.214Z,998.73
2019-01-13T08:10:03.231Z,998.80
2019-01-13T08:11:03.250Z,998.75
2019-01-13T08:12:03.270Z,998.76
2019-01-13T08:13:03.282Z,998.76
2019-01-13T08:14:03.301Z,998.81
2019-01-13T08:15:03.320Z,998.77
2019-01-13T08:16:03.333Z,998.75
2019-01-13T08:17:03.346Z,998.74
2019-01-13T08:18:03.362Z,998.75
2019-01-13T08:19:03.382Z,998.79
2019-01-13T08:20:03.399Z,998.77
2019-01-13T08:21:03.412Z,998.74
2019-01-13T08:22:03.432Z,998.72
2019-01-13T08:23:03.447Z,998.70
2019-01-13T08:24:03.466Z,998.66
2019-01-13T08:25:03.480Z,998.62
2019-01-13T08:26:03.495Z,998.63
2019-01-13T08:27:03.514Z,998.61
2019-01-13T08:28:03.531Z,998.62
2019-01-13T08:29:03.547Z,998.60
2019-01-13T08:30:03.566Z,998.60
2019-01-13T08:31:03.580Z,998.61
2019-01-13T08:32:03.598Z,998.55
2019-01-13T08:33:03.613Z,998.54
2019-01-13T08:34:03.628Z,998.59
2019-01-13T08:35:03.945Z,998.62
2019-01-13T08:36:03.662Z,998.66
2019-01-13T08:37:03.679Z,998.57
2019-01-13T08:38:03.696Z,998.55
2019-01-13T08:39:03.712Z,998.55
2019-01-13T08:40:03.729Z,998.46
2019-01-13T08:41:03.744Z,998.49
2019-01-13T08:42:03.761Z,998.55
2019-01-13T08:43:03.781Z,998.49
2019-01-13T08:44:03.798Z,998.44
2019-01-13T08:45:03.814Z,998.45
2019-01-13T08:46:03.830Z,998.40
2019-01-13T08:47:03.847Z,998.39
2019-01-13T08:48:03.869Z,998.35
2019-01-13T08:49:03.880Z,998.31
2019-01-13T08:50:03.895Z,998.24
2019-01-13T08:51:03.914Z,998.24
2019-01-13T08:52:03.935Z,998.19
2019-01-13T08:53:03.952Z,998.19
2019-01-13T08:54:03.961Z,998.22
2019-01-13T08:55:03.988Z,998.19
2019-01-13T08:56:03.999Z,998.25
2019-01-13T08:57:04.014Z,998.16
2019-01-13T08:58:04.032Z,998.22
2019-01-13T08:59:04.045Z,998.16
2019-01-13T09:00:04.065Z,998.15
2019-01-13T09:01:04.080Z,998.16
2019-01-13T09:02:04.101Z,998.17
2019-01-13T09:03:04.116Z,998.16
2019-01-13T09:04:04.130Z,998.12
2019-01-13T09:05:04.147Z,998.15
2019-01-13T09:06:04.165Z,998.03
2019-01-13T09:07:04.182Z,998.10
2019-01-13T09:08:04.196Z,998.02
2019-01-13T09:09:04.212Z,997.95
2019-01-13T09:10:04.229Z,997.98
2019-01-13T09:11:04.246Z,997.96
2019-01-13T09:12:04.267Z,997.97
2019-01-13T09:13:04.285Z,998.03
2019-01-13T09:14:04.299Z,998.04
2019-01-13T09:15:04.316Z,998.05
2019-01-13T09:16:04.331Z,998.01
2019-01-13T09:17:04.345Z,998.00
2019-01-13T09:18:04.365Z,997.98
2019-01-13T09:19:04.379Z,997.94
2019-01-13T09:20:04.400Z,997.95
2019-01-13T09:21:04.421Z,997.96
2019-01-13T09:22:04.430Z,997.91
2019-01-13T09:23:04.447Z,997.85
2019-01-13T09:24:04.464Z,997.87
2019-01-13T09:25:04.489Z,997.80
2019-01-13T09:26:04.500Z,997.86
2019-01-13T09:27:04.520Z,997.83
2019-01-13T09:28:04.535Z,997.80
2019-01-13T09:29:04.551Z,997.83
2019-01-13T09:30:04.566Z,997.82
2019-01-13T09:31:04.589Z,997.84
2019-01-13T09:32:04.598Z,997.79
2019-01-13T09:33:05.615Z,997.77
2019-01-13T09:34:04.631Z,997.78
2019-01-13T09:35:04.656Z,997.80
2019-01-13T09:36:04.665Z,997.75
2019-01-13T09:37:04.684Z,997.73
2019-01-13T09:38:04.698Z,997.69
2019-01-13T09:39:04.721Z,997.70
2019-01-13T09:40:04.732Z,997.67
2019-01-13T09:41:04.752Z,997.63
2019-01-13T09:42:04.769Z,997.67
2019-01-13T09:43:04.788Z,997.61
2019-01-13T09:44:04.803Z,997.65
2019-01-13T09:45:04.820Z,997.64
2019-01-13T09:46:04.836Z,997.62
2019-01-13T09:47:04.856Z,997.66
2019-01-13T09:48:04.867Z,997.63
2019-01-13T09:49:04.888Z,997.62
2019-01-13T09:50:04.900Z,997.67
2019-01-13T09:51:04.927Z,997.62
2019-01-13T09:52:04.936Z,997.65
2019-01-13T09:53:04.953Z,997.61
2019-01-13T09:54:04.970Z,997.66
2019-01-13T09:55:04.985Z,997.69
2019-01-13T09:56:05.004Z,997.70
2019-01-13T09:57:05.020Z,997.66
2019-01-13T09:58:05.036Z,997.77
2019-01-13T09:59:05.052Z,997.63
2019-01-13T10:00:05.073Z,997.59
2019-01-13T10:01:05.086Z,997.65
2019-01-13T10:02:05.106Z,997.60
2019-01-13T10:03:05.122Z,997.60
2019-01-13T10:04:05.139Z,997.64
2019-01-13T10:05:05.153Z,997.74
2019-01-13T10:06:05.170Z,997.66
2019-01-13T10:07:05.191Z,997.68
2019-01-13T10:08:05.204Z,997.60
2019-01-13T10:09:05.220Z,997.64
2019-01-13T10:10:05.238Z,997.68
2019-01-13T10:11:05.256Z,997.59
2019-01-13T10:12:05.271Z,997.55
2019-01-13T10:13:05.288Z,997.58
2019-01-13T10:14:05.305Z,997.56
2019-01-13T10:15:05.324Z,997.55
2019-01-13T10:16:05.339Z,997.55
2019-01-13T10:17:05.357Z,997.56
2019-01-13T10:18:05.375Z,997.57
2019-01-13T10:19:05.394Z,997.52
2019-01-13T10:20:05.464Z,997.51
2019-01-13T10:21:05.423Z,997.44
2019-01-13T10:22:05.443Z,997.44
2019-01-13T10:23:05.457Z,997.39
2019-01-13T10:24:05.477Z,997.37
2019-01-13T10:25:05.492Z,997.33
2019-01-13T10:26:05.512Z,997.34
2019-01-13T10:27:05.525Z,997.26
2019-01-13T10:28:05.546Z,997.20
2019-01-13T10:29:05.561Z,997.17
2019-01-13T10:30:05.575Z,997.19
2019-01-13T10:31:05.596Z,997.09
2019-01-13T10:32:05.614Z,997.15
2019-01-13T10:33:05.628Z,997.09
2019-01-13T10:34:05.645Z,997.12
2019-01-13T10:35:05.661Z,997.11
2019-01-13T10:36:05.680Z,997.15
2019-01-13T10:37:05.696Z,997.11
2019-01-13T10:38:05.710Z,997.07
2019-01-13T10:39:05.727Z,997.10
2019-01-13T10:40:05.748Z,997.11
2019-01-13T10:41:05.760Z,997.10
2019-01-13T10:42:05.781Z,997.03
2019-01-13T10:43:05.795Z,997.06
2019-01-13T10:44:05.815Z,996.99
2019-01-13T10:45:05.832Z,996.90
2019-01-13T10:46:05.848Z,996.89
2019-01-13T10:47:05.868Z,996.90
2019-01-13T10:48:05.884Z,996.89
2019-01-13T10:49:05.900Z,996.85
2019-01-13T10:50:05.915Z,996.86
2019-01-13T10:51:05.936Z,996.89
2019-01-13T10:52:05.951Z,996.88
2019-01-13T10:53:05.964Z,996.85
2019-01-13T10:54:09.178Z,996.83
2019-01-13T10:55:06.001Z,996.92
2019-01-13T10:56:06.019Z,996.83
2019-01-13T10:57:06.079Z,996.78
2019-01-13T10:58:06.050Z,996.79
2019-01-13T10:59:06.070Z,996.75
2019-01-13T11:00:06.083Z,996.74
2019-01-13T11:01:06.104Z,996.75
2019-01-13T11:02:06.119Z,996.74
2019-01-13T11:03:06.140Z,996.78
2019-01-13T11:04:06.210Z,996.78
2019-01-13T11:05:06.168Z,996.77
2019-01-13T11:06:06.184Z,996.75
2019-01-13T11:07:06.203Z,996.73
2019-01-13T11:08:11.397Z,996.71
2019-01-13T11:09:06.239Z,996.68
2019-01-13T11:10:06.253Z,996.59
2019-01-13T11:11:06.270Z,996.58
2019-01-13T11:12:06.291Z,996.57
2019-01-13T11:13:06.309Z,996.54
2019-01-13T11:14:06.320Z,996.53
2019-01-13T11:15:06.342Z,996.50
2019-01-13T11:16:06.359Z,996.48
2019-01-13T11:17:06.374Z,996.53
2019-01-13T11:18:06.392Z,996.51
2019-01-13T11:19:06.410Z,996.49
2019-01-13T11:20:06.426Z,996.43
2019-01-13T11:21:06.442Z,996.39
2019-01-13T11:22:06.460Z,996.35
2019-01-13T11:23:06.478Z,996.32
2019-01-13T11:24:06.494Z,996.35
2019-01-13T11:25:06.506Z,996.41
2019-01-13T11:26:06.528Z,996.36
2019-01-13T11:27:06.547Z,996.37
2019-01-13T11:28:06.561Z,996.40
2019-01-13T11:29:06.574Z,996.32
2019-01-13T11:30:06.593Z,996.29
2019-01-13T11:31:06.609Z,996.25
2019-01-13T11:32:06.626Z,996.22
2019-01-13T11:33:09.768Z,996.22
2019-01-13T11:34:06.660Z,996.22
2019-01-13T11:35:06.675Z,996.16
2019-01-13T11:36:06.694Z,996.17
2019-01-13T11:37:06.711Z,996.09
2019-01-13T11:38:06.726Z,996.05
2019-01-13T11:39:06.743Z,996.08
2019-01-13T11:40:06.761Z,996.09
2019-01-13T11:41:06.778Z,996.06
2019-01-13T11:42:06.794Z,995.98
2019-01-13T11:43:06.810Z,995.92
2019-01-13T11:44:06.829Z,995.96
2019-01-13T11:45:06.844Z,995.87
2019-01-13T11:46:06.864Z,995.94
2019-01-13T11:47:06.879Z,995.90
2019-01-13T11:48:06.896Z,995.92
2019-01-13T11:49:06.912Z,995.91
2019-01-13T11:50:06.934Z,995.91
2019-01-13T11:51:06.948Z,995.94
2019-01-13T11:52:06.970Z,995.82
2019-01-13T11:53:06.984Z,995.84
2019-01-13T11:54:06.998Z,995.75
2019-01-13T11:55:07.015Z,995.71
2019-01-13T11:56:07.033Z,995.66
2019-01-13T11:57:07.047Z,995.65
2019-01-13T11:58:07.064Z,995.60
2019-01-13T11:59:07.082Z,995.62
2019-01-13T12:00:07.102Z,995.69
2019-01-13T12:01:07.116Z,995.69
2019-01-13T12:02:07.136Z,995.63
2019-01-13T12:03:07.152Z,995.70
2019-01-13T12:04:07.170Z,995.66
2019-01-13T12:05:07.184Z,995.71
2019-01-13T12:06:07.203Z,995.62
2019-01-13T12:07:07.220Z,995.61
2019-01-13T12:08:07.238Z,995.58
2019-01-13T12:09:07.254Z,995.65
2019-01-13T12:10:07.272Z,995.60
2019-01-13T12:11:07.289Z,995.51
2019-01-13T12:12:07.305Z,995.52
2019-01-13T12:13:07.322Z,995.49
2019-01-13T12:14:07.337Z,995.54
2019-01-13T12:15:07.356Z,995.51
2019-01-13T12:16:07.371Z,995.47